createdAt,value
2024-05-09T00:03:29.626Z,4.60
2024-05-09T00:08:47.485Z,4.50
2024-05-09T00:14:12.701Z,4.80
2024-05-09T00:19:37.989Z,4.90
2024-05-09T00:25:03.253Z,3.90
2024-05-09T00:30:34.596Z,4.50
2024-05-09T00:36:01.974Z,5.00
2024-05-09T00:41:27.442Z,6.90
2024-05-09T00:46:53.011Z,4.20
2024-05-09T00:52:18.843Z,5.00
2024-05-09T00:57:45.606Z,4.40
2024-05-09T01:03:12.832Z,4.80
2024-05-09T01:08:39.688Z,5.00
2024-05-09T01:14:03.494Z,5.40
2024-05-09T01:19:36.942Z,4.30
2024-05-09T01:24:55.688Z,5.10
2024-05-09T01:30:24.570Z,4.10
2024-05-09T01:35:56.562Z,5.20
2024-05-09T01:41:21.767Z,4.90
2024-05-09T01:46:47.040Z,6.40
2024-05-09T01:52:12.226Z,4.90
2024-05-09T01:57:37.414Z,4.80
2024-05-09T02:03:05.066Z,5.70
2024-05-09T02:08:29.584Z,4.90
2024-05-09T02:13:54.856Z,4.60
2024-05-09T02:19:20.325Z,5.10
2024-05-09T02:24:45.851Z,6.00
2024-05-09T02:30:18.760Z,7.20
2024-05-09T02:35:51.301Z,7.60
2024-05-09T02:41:16.775Z,5.20
2024-05-09T02:46:42.040Z,5.10
2024-05-09T02:51:59.565Z,6.20
2024-05-09T02:57:17.521Z,5.40
2024-05-09T03:02:43.015Z,5.50
2024-05-09T03:08:08.539Z,5.10
2024-05-09T03:13:34.630Z,6.80
2024-05-09T03:19:00.057Z,4.20
2024-05-09T03:24:25.887Z,4.70
2024-05-09T03:29:43.636Z,4.80
2024-05-09T03:35:08.835Z,4.50
2024-05-09T03:40:34.478Z,6.00
2024-05-09T03:45:59.599Z,6.60
2024-05-09T03:51:25.340Z,7.60
2024-05-09T03:56:50.530Z,5.40
2024-05-09T04:02:16.005Z,6.20
2024-05-09T04:07:41.329Z,6.70
2024-05-09T04:13:06.503Z,5.60
2024-05-09T04:18:31.813Z,4.60
2024-05-09T04:23:57.049Z,6.70
2024-05-09T04:29:22.258Z,4.50
2024-05-09T04:34:47.513Z,4.20
2024-05-09T04:40:24.040Z,9.10
2024-05-09T04:45:56.264Z,6.50
2024-05-09T04:51:22.996Z,5.90
2024-05-09T04:56:48.206Z,5.60
2024-05-09T05:02:13.474Z,6.30
2024-05-09T05:07:38.737Z,6.80
2024-05-09T05:13:02.298Z,5.50
2024-05-09T05:18:10.137Z,5.90
2024-05-09T05:23:36.809Z,5.70
2024-05-09T05:28:51.992Z,5.00
2024-05-09T05:33:57.008Z,6.20
2024-05-09T05:39:02.170Z,5.80
2024-05-09T05:44:10.475Z,7.10
2024-05-09T05:49:17.862Z,5.20
2024-05-09T05:54:32.994Z,5.20
2024-05-09T05:59:40.382Z,5.40
2024-05-09T06:04:45.798Z,7.40
2024-05-09T06:09:50.879Z,5.40
2024-05-09T06:14:58.556Z,5.80
2024-05-09T06:20:13.247Z,5.70
2024-05-09T06:25:22.479Z,6.90
2024-05-09T06:30:38.603Z,8.60
2024-05-09T06:35:56.977Z,5.40
2024-05-09T06:41:15.812Z,7.40
2024-05-09T06:46:39.854Z,6.40
2024-05-09T06:51:49.652Z,5.50
2024-05-09T06:57:14.871Z,5.20
2024-05-09T07:02:23.226Z,4.60
2024-05-09T07:07:42.432Z,5.90
2024-05-09T07:13:07.792Z,4.40
2024-05-09T07:18:19.925Z,4.50
2024-05-09T07:23:29.256Z,5.70
2024-05-09T07:28:46.952Z,4.20
2024-05-09T07:34:12.389Z,6.00
2024-05-09T07:39:30.528Z,6.30
2024-05-09T07:44:49.361Z,5.40
2024-05-09T07:55:25.866Z,3.60
2024-05-09T08:00:32.170Z,5.80
2024-05-09T08:05:51.215Z,3.90
2024-05-09T08:10:58.667Z,3.60
2024-05-09T08:16:04.151Z,4.70
2024-05-09T08:21:12.487Z,3.70
2024-05-09T08:26:37.699Z,4.30
2024-05-09T08:32:03.169Z,3.70
2024-05-09T08:37:15.787Z,3.80
2024-05-09T08:42:43.075Z,6.90
2024-05-09T08:48:01.073Z,3.60
2024-05-09T08:53:11.860Z,9.80
2024-05-09T08:58:19.055Z,3.80
2024-05-09T09:03:37.735Z,3.70
2024-05-09T09:08:59.823Z,4.60
2024-05-09T09:14:15.922Z,4.00
2024-05-09T09:19:22.768Z,4.40
2024-05-09T09:24:48.156Z,5.70
2024-05-09T09:30:03.624Z,5.00
2024-05-09T09:35:09.902Z,3.80
2024-05-09T09:46:59.697Z,2.90
2024-05-09T09:52:26.683Z,3.20
2024-05-09T09:57:35.802Z,3.10
2024-05-09T10:03:01.822Z,5.50
2024-05-09T10:08:29.684Z,3.40
2024-05-09T10:13:55.516Z,2.40
2024-05-09T10:19:03.866Z,3.40
2024-05-09T10:24:12.577Z,3.30
2024-05-09T10:29:28.929Z,3.40
2024-05-09T10:34:38.323Z,5.50
2024-05-09T10:39:53.851Z,2.80
2024-05-09T10:45:19.905Z,3.10
2024-05-09T10:50:36.142Z,3.20
2024-05-09T10:56:01.426Z,2.80
2024-05-09T11:01:27.572Z,3.40
2024-05-09T11:06:35.792Z,2.00
2024-05-09T11:12:01.368Z,2.90
2024-05-09T11:17:28.186Z,2.60
2024-05-09T11:22:54.050Z,4.60
2024-05-09T11:28:21.666Z,3.40
2024-05-09T11:33:48.920Z,3.00
2024-05-09T11:39:14.597Z,3.70
2024-05-09T11:44:40.059Z,3.40
2024-05-09T11:49:48.302Z,4.00
2024-05-09T11:55:13.767Z,3.50
2024-05-09T12:00:38.144Z,4.80
2024-05-09T12:06:03.671Z,2.60
2024-05-09T12:11:29.430Z,2.00
2024-05-09T12:16:54.986Z,2.80
2024-05-09T12:22:10.458Z,3.50
2024-05-09T12:27:25.706Z,5.40
2024-05-09T12:32:51.258Z,3.20
2024-05-09T12:38:17.351Z,2.80
2024-05-09T12:43:31.588Z,2.90
2024-05-09T12:48:37.178Z,3.10
2024-05-09T12:53:45.568Z,3.40
2024-05-09T12:59:12.290Z,3.00
2024-05-09T13:04:37.798Z,5.10
2024-05-09T13:10:04.441Z,3.30
2024-05-09T13:15:19.196Z,2.50
2024-05-09T13:20:44.968Z,4.90
2024-05-09T13:25:52.983Z,2.80
2024-05-09T13:31:08.224Z,3.50
2024-05-09T13:36:33.707Z,1.90
2024-05-09T13:41:59.028Z,3.00
2024-05-09T13:47:24.039Z,3.60
2024-05-09T13:52:42.076Z,3.50
2024-05-09T13:58:07.924Z,3.40
2024-05-09T14:03:18.413Z,3.80
2024-05-09T14:08:35.134Z,2.80
2024-05-09T14:13:51.300Z,2.70
2024-05-09T14:19:16.851Z,3.30
2024-05-09T14:24:25.041Z,2.70
2024-05-09T14:29:41.173Z,2.70
2024-05-09T14:35:06.607Z,4.90
2024-05-09T14:40:29.737Z,9.70
2024-05-09T14:46:01.126Z,3.30
2024-05-09T14:51:09.904Z,2.70
2024-05-09T14:56:35.453Z,2.90
2024-05-09T15:01:40.720Z,2.40
2024-05-09T15:06:56.535Z,2.70
2024-05-09T15:12:22.057Z,3.10
2024-05-09T15:17:31.847Z,2.90
2024-05-09T15:22:57.370Z,4.40
2024-05-09T15:28:10.690Z,4.40
2024-05-09T15:33:18.635Z,4.20
2024-05-09T15:38:35.119Z,3.10
2024-05-09T15:44:00.444Z,2.70
2024-05-09T15:49:26.076Z,2.50
2024-05-09T15:54:51.628Z,2.80
2024-05-09T16:00:24.978Z,2.00
2024-05-09T16:05:59.116Z,2.10
2024-05-09T16:11:14.747Z,4.10
2024-05-09T16:16:31.343Z,2.30
2024-05-09T16:21:47.732Z,3.20
2024-05-09T16:27:13.055Z,4.90
2024-05-09T16:32:38.372Z,4.10
2024-05-09T16:37:54.786Z,3.30
2024-05-09T16:43:20.219Z,14.90
2024-05-09T16:48:45.851Z,8.30
2024-05-09T16:54:01.304Z,5.60
2024-05-09T16:59:26.697Z,4.10
2024-05-09T17:04:52.062Z,4.60
2024-05-09T17:10:26.451Z,6.30
2024-05-09T17:15:57.644Z,3.30
2024-05-09T17:21:22.973Z,5.60
2024-05-09T17:26:37.271Z,2.50
2024-05-09T17:32:02.550Z,3.40
2024-05-09T17:37:27.965Z,2.50
2024-05-09T17:42:36.112Z,3.50
2024-05-09T17:47:41.735Z,3.50
2024-05-09T17:52:58.030Z,2.60
2024-05-09T17:58:06.538Z,2.80
2024-05-09T18:03:15.092Z,3.80
2024-05-09T18:08:41.472Z,3.20
2024-05-09T18:13:50.400Z,4.90
2024-05-09T18:18:56.549Z,3.90
2024-05-09T18:24:21.721Z,4.10
2024-05-09T18:29:34.172Z,5.20
2024-05-09T18:34:59.623Z,3.70
2024-05-09T18:40:32.935Z,4.10
2024-05-09T18:46:01.985Z,6.00
2024-05-09T18:51:17.271Z,4.40
2024-05-09T18:56:42.668Z,3.50
2024-05-09T19:02:08.836Z,3.00
2024-05-09T19:07:27.556Z,4.20
2024-05-09T19:12:52.913Z,3.90
2024-05-09T19:18:21.786Z,4.50
2024-05-09T19:23:52.126Z,3.70
2024-05-09T19:29:17.825Z,4.60
2024-05-09T19:34:33.828Z,6.10
2024-05-09T19:39:59.263Z,5.20
2024-05-09T19:45:25.498Z,7.20
2024-05-09T19:50:53.034Z,8.50
2024-05-09T19:56:20.238Z,9.20
2024-05-09T20:01:36.068Z,9.60
2024-05-09T20:07:02.244Z,9.50
2024-05-09T20:12:28.897Z,8.20
2024-05-09T20:17:54.806Z,9.80
2024-05-09T20:23:20.988Z,7.70
2024-05-09T20:28:37.855Z,7.20
2024-05-09T20:34:03.122Z,7.10
2024-05-09T20:39:28.772Z,7.40
2024-05-09T20:44:54.334Z,8.30
2024-05-09T20:50:23.044Z,8.70
2024-05-09T20:55:54.401Z,11.70
2024-05-09T21:01:19.417Z,12.40
2024-05-09T21:06:27.750Z,13.30
2024-05-09T21:11:43.102Z,8.90
2024-05-09T21:16:51.032Z,8.90
2024-05-09T21:22:16.572Z,9.30
2024-05-09T21:27:35.641Z,14.20
2024-05-09T21:33:01.084Z,9.80
2024-05-09T21:38:17.938Z,11.50
2024-05-09T21:43:34.130Z,13.00
2024-05-09T21:48:59.700Z,15.40
2024-05-09T21:54:07.934Z,15.30
2024-05-09T21:59:15.951Z,14.00
2024-05-09T22:04:28.567Z,14.80
2024-05-09T22:09:44.880Z,16.50
2024-05-09T22:14:50.127Z,16.40
2024-05-09T22:20:22.198Z,23.70
2024-05-09T22:25:54.206Z,16.80
2024-05-09T22:31:19.520Z,19.10
2024-05-09T22:36:27.013Z,15.60
2024-05-09T22:41:52.491Z,17.20
2024-05-09T22:47:17.840Z,15.00
2024-05-09T22:52:43.304Z,14.00
2024-05-09T22:57:58.811Z,15.90
2024-05-09T23:03:24.843Z,16.10
2024-05-09T23:08:52.010Z,13.00
2024-05-09T23:14:15.776Z,13.50
2024-05-09T23:19:41.215Z,13.70
2024-05-09T23:25:06.687Z,14.90
2024-05-09T23:30:38.215Z,13.40
2024-05-09T23:36:05.858Z,12.60
2024-05-09T23:41:31.133Z,12.70
2024-05-09T23:46:56.805Z,13.90
2024-05-09T23:52:22.459Z,14.20
2024-05-09T23:57:47.758Z,12.00
